createdAt,value
2023-02-13T00:01:02.627Z,82.39
2023-02-13T00:06:23.517Z,82.40
2023-02-13T00:11:44.342Z,82.15
2023-02-13T00:17:06.105Z,82.10
2023-02-13T00:22:26.610Z,81.85
2023-02-13T00:27:47.291Z,81.95
2023-02-13T00:33:08.235Z,82.05
2023-02-13T00:38:30.170Z,81.92
2023-02-13T00:43:50.973Z,81.71
2023-02-13T00:49:11.691Z,81.67
2023-02-13T00:54:32.098Z,81.61
2023-02-13T00:59:52.305Z,81.62
2023-02-13T01:05:13.762Z,81.50
2023-02-13T01:10:34.536Z,81.48
2023-02-13T01:15:55.547Z,81.52
2023-02-13T01:21:21.876Z,81.39
2023-02-13T01:26:43.261Z,81.28
2023-02-13T01:32:05.116Z,81.29
2023-02-13T01:37:25.574Z,81.53
2023-02-13T01:42:46.259Z,81.35
2023-02-13T01:48:13.292Z,81.33
2023-02-13T01:53:43.926Z,81.33
2023-02-13T01:59:14.550Z,81.21
2023-02-13T02:04:39.727Z,81.19
2023-02-13T02:10:14.685Z,81.28
2023-02-13T02:15:35.899Z,81.42
2023-02-13T02:21:08.824Z,81.40
2023-02-13T02:27:05.113Z,81.33
2023-02-13T02:32:44.767Z,81.35
2023-02-13T02:38:05.395Z,81.33
2023-02-13T02:43:42.171Z,81.16
2023-02-13T02:49:26.587Z,81.14
2023-02-13T02:55:09.729Z,81.35
2023-02-13T03:01:04.640Z,81.15
2023-02-13T03:06:32.422Z,81.33
2023-02-13T03:12:13.891Z,81.25
2023-02-13T03:17:53.537Z,81.26
2023-02-13T03:23:17.545Z,81.26
2023-02-13T03:29:16.674Z,81.19
2023-02-13T03:35:02.394Z,81.03
2023-02-13T03:41:00.777Z,81.17
2023-02-13T03:46:23.571Z,80.83
2023-02-13T03:51:58.564Z,81.19
2023-02-13T03:57:39.682Z,81.38
2023-02-13T04:03:30.746Z,81.36
2023-02-13T04:08:51.596Z,81.13
2023-02-13T04:14:38.394Z,81.17
2023-02-13T04:19:59.533Z,81.06
2023-02-13T04:25:20.776Z,80.99
2023-02-13T04:30:41.736Z,81.03
2023-02-13T04:36:02.136Z,80.89
2023-02-13T04:41:23.043Z,80.75
2023-02-13T04:46:43.607Z,80.67
2023-02-13T04:52:04.622Z,80.31
2023-02-13T04:57:25.828Z,80.35
2023-02-13T05:02:46.514Z,80.47
2023-02-13T05:08:08.217Z,80.57
2023-02-13T05:13:29.009Z,80.54
2023-02-13T05:18:50.024Z,80.53
2023-02-13T05:24:10.569Z,80.21
2023-02-13T05:29:31.204Z,80.26
2023-02-13T05:34:51.624Z,80.16
2023-02-13T05:40:13.420Z,80.21
2023-02-13T05:45:34.696Z,80.02
2023-02-13T05:50:56.052Z,80.03
2023-02-13T05:56:17.240Z,79.88
2023-02-13T06:01:38.198Z,79.78
2023-02-13T06:06:58.483Z,79.55
2023-02-13T06:12:19.214Z,79.44
2023-02-13T06:17:39.911Z,79.25
2023-02-13T06:23:00.839Z,79.30
2023-02-13T06:28:21.753Z,79.23
2023-02-13T06:33:42.100Z,78.87
2023-02-13T06:39:02.521Z,78.75
2023-02-13T06:44:42.690Z,78.69
2023-02-13T06:50:06.927Z,78.69
2023-02-13T06:55:27.959Z,78.83
2023-02-13T07:00:49.110Z,78.84
2023-02-13T07:06:09.860Z,78.80
2023-02-13T07:11:31.170Z,78.77
2023-02-13T07:16:51.858Z,78.66
2023-02-13T07:22:12.455Z,78.44
2023-02-13T07:27:33.343Z,78.41
2023-02-13T07:32:54.111Z,78.46
2023-02-13T07:38:15.149Z,78.33
2023-02-13T07:43:35.836Z,78.27
2023-02-13T07:48:56.393Z,78.18
2023-02-13T07:54:16.837Z,78.08
2023-02-13T07:59:37.439Z,78.18
2023-02-13T08:04:57.944Z,78.04
2023-02-13T08:10:38.010Z,77.74
2023-02-13T08:15:58.941Z,77.56
2023-02-13T08:21:19.299Z,77.65
2023-02-13T08:26:41.249Z,77.30
2023-02-13T08:32:02.016Z,77.22
2023-02-13T08:37:22.887Z,77.09
2023-02-13T08:42:43.628Z,76.69
2023-02-13T08:48:04.650Z,76.78
2023-02-13T08:53:25.701Z,76.67
2023-02-13T08:58:50.075Z,76.41
2023-02-13T09:04:10.615Z,76.36
2023-02-13T09:09:31.319Z,76.32
2023-02-13T09:14:52.398Z,76.24
2023-02-13T09:20:14.037Z,76.24
2023-02-13T09:25:34.650Z,75.90
2023-02-13T09:30:55.536Z,75.85
2023-02-13T09:36:22.472Z,75.88
2023-02-13T09:41:45.268Z,75.68
2023-02-13T09:47:29.733Z,75.79
2023-02-13T09:52:52.967Z,75.42
2023-02-13T09:58:22.519Z,75.23
2023-02-13T10:03:48.887Z,75.40
2023-02-13T10:09:29.881Z,75.34
2023-02-13T10:15:26.043Z,75.28
2023-02-13T10:20:51.749Z,75.25
2023-02-13T10:26:43.034Z,75.06
2023-02-13T10:32:09.544Z,75.14
2023-02-13T10:37:30.426Z,74.71
2023-02-13T10:43:09.005Z,74.73
2023-02-13T10:48:44.678Z,74.95
2023-02-13T10:54:40.665Z,74.66
2023-02-13T11:00:31.242Z,74.89
2023-02-13T11:05:53.122Z,74.88
2023-02-13T11:11:40.315Z,74.94
2023-02-13T11:17:14.032Z,74.63
2023-02-13T11:22:38.377Z,74.64
2023-02-13T11:28:16.415Z,74.71
2023-02-13T11:33:37.199Z,74.41
2023-02-13T11:39:07.311Z,74.61
2023-02-13T11:44:31.116Z,74.35
2023-02-13T11:49:51.523Z,74.29
2023-02-13T11:56:01.793Z,74.21
2023-02-13T12:01:22.213Z,73.89
2023-02-13T12:07:00.233Z,73.76
2023-02-13T12:12:30.800Z,73.72
2023-02-13T12:18:09.756Z,73.88
2023-02-13T12:23:49.328Z,73.73
2023-02-13T12:29:19.406Z,73.65
2023-02-13T12:50:07.263Z,73.94
2023-02-13T12:55:41.371Z,73.58
2023-02-13T13:01:25.044Z,73.96
2023-02-13T13:07:04.124Z,74.04
2023-02-13T13:12:36.764Z,73.92
2023-02-13T13:18:04.011Z,74.10
2023-02-13T13:23:36.515Z,74.09
2023-02-13T13:28:59.890Z,74.41
2023-02-13T13:34:24.517Z,74.68
2023-02-13T13:40:07.444Z,74.61
2023-02-13T13:45:50.051Z,74.54
2023-02-13T13:51:15.915Z,74.31
2023-02-13T13:56:56.867Z,74.51
2023-02-13T14:02:17.626Z,74.35
2023-02-13T14:07:41.497Z,74.71
2023-02-13T14:13:07.786Z,74.65
2023-02-13T14:18:30.157Z,74.58
2023-02-13T14:23:53.130Z,74.14
2023-02-13T14:29:24.558Z,74.04
2023-02-13T14:34:52.946Z,73.99
2023-02-13T14:40:28.940Z,73.81
2023-02-13T14:45:57.853Z,73.74
2023-02-13T14:51:28.707Z,73.63
2023-02-13T14:56:51.434Z,73.61
2023-02-13T15:02:31.768Z,73.79
2023-02-13T15:08:15.263Z,73.90
2023-02-13T15:13:40.697Z,73.54
2023-02-13T15:19:03.243Z,73.44
2023-02-13T15:24:25.048Z,73.23
2023-02-13T15:30:03.682Z,73.37
2023-02-13T15:35:26.690Z,73.24
2023-02-13T15:40:50.766Z,73.41
2023-02-13T15:46:28.293Z,73.44
2023-02-13T15:51:50.188Z,73.05
2023-02-13T15:57:12.638Z,73.19
2023-02-13T16:02:43.333Z,73.29
2023-02-13T16:08:32.424Z,73.50
2023-02-13T16:13:59.969Z,73.41
2023-02-13T16:19:35.153Z,73.60
2023-02-13T16:25:07.556Z,73.50
2023-02-13T16:30:34.980Z,73.52
2023-02-13T16:36:01.063Z,73.17
2023-02-13T16:41:25.894Z,73.08
2023-02-13T16:46:54.698Z,73.08
2023-02-13T16:52:26.684Z,73.10
2023-02-13T16:57:47.470Z,72.79
2023-02-13T17:03:09.391Z,73.06
2023-02-13T17:08:32.634Z,72.92
2023-02-13T17:13:53.317Z,72.76
2023-02-13T17:19:14.256Z,72.94
2023-02-13T17:24:34.722Z,72.79
2023-02-13T17:29:55.398Z,73.09
2023-02-13T17:35:16.760Z,73.26
2023-02-13T17:40:37.546Z,73.64
2023-02-13T17:46:01.186Z,73.69
2023-02-13T17:51:22.025Z,73.57
2023-02-13T17:56:43.071Z,72.80
2023-02-13T18:02:03.714Z,72.24
2023-02-13T18:07:24.635Z,72.19
2023-02-13T18:12:46.112Z,72.30
2023-02-13T18:18:06.956Z,72.47
2023-02-13T18:23:27.691Z,72.42
2023-02-13T18:28:52.284Z,72.33
2023-02-13T18:34:12.949Z,72.31
2023-02-13T18:39:33.698Z,72.47
2023-02-13T18:44:54.466Z,72.70
2023-02-13T18:50:15.270Z,72.44
2023-02-13T18:55:36.011Z,72.57
2023-02-13T19:00:57.181Z,72.43
2023-02-13T19:06:21.040Z,72.66
2023-02-13T19:11:42.822Z,72.98
2023-02-13T19:17:03.546Z,72.45
2023-02-13T19:22:24.079Z,72.19
2023-02-13T19:27:44.542Z,71.98
2023-02-13T19:33:05.383Z,72.70
2023-02-13T19:38:26.669Z,72.54
2023-02-13T19:43:51.226Z,72.34
2023-02-13T19:49:12.023Z,72.56
2023-02-13T19:54:33.422Z,72.37
2023-02-13T19:59:54.615Z,73.05
2023-02-13T20:05:15.536Z,72.63
2023-02-13T20:10:36.816Z,73.00
2023-02-13T20:15:58.202Z,73.16
2023-02-13T20:21:19.617Z,72.38
2023-02-13T20:26:40.657Z,72.17
2023-02-13T20:32:01.632Z,73.21
2023-02-13T20:37:22.559Z,73.31
2023-02-13T20:42:43.181Z,72.12
2023-02-13T20:48:03.913Z,71.83
2023-02-13T20:53:24.777Z,71.81
2023-02-13T20:58:47.183Z,71.97
2023-02-13T21:04:11.192Z,71.96
2023-02-13T21:09:31.833Z,71.80
2023-02-13T21:14:52.717Z,71.81
2023-02-13T21:20:15.260Z,71.67
2023-02-13T21:25:35.907Z,71.49
2023-02-13T21:30:56.853Z,71.89
2023-02-13T21:36:17.701Z,72.09
2023-02-13T21:41:43.637Z,72.20
2023-02-13T21:47:06.805Z,72.89
2023-02-13T21:52:28.043Z,73.15
2023-02-13T21:57:48.931Z,72.02
2023-02-13T22:03:09.416Z,71.72
2023-02-13T22:08:30.040Z,71.87
2023-02-13T22:13:55.879Z,71.67
2023-02-13T22:19:16.745Z,71.51
2023-02-13T22:24:37.482Z,71.48
2023-02-13T22:29:57.652Z,71.93
2023-02-13T22:35:18.333Z,71.38
2023-02-13T22:40:39.239Z,72.34
2023-02-13T22:46:05.660Z,72.50
2023-02-13T22:51:29.664Z,72.64
2023-02-13T22:56:49.932Z,72.42
2023-02-13T23:02:10.756Z,72.50
2023-02-13T23:07:32.642Z,71.63
2023-02-13T23:12:53.345Z,71.35
2023-02-13T23:18:14.261Z,71.33
2023-02-13T23:23:36.321Z,71.69
2023-02-13T23:28:57.403Z,72.03
2023-02-13T23:34:18.188Z,71.53
2023-02-13T23:39:39.156Z,71.54
2023-02-13T23:44:59.970Z,72.42
2023-02-13T23:50:20.288Z,73.21
2023-02-13T23:55:40.511Z,72.96
